Time;durP1;ratioP1;P1;durP2;ratioP2;P2;SDS_P1;SDS_P2;PMS_P1;PMS_P2;Temp;Humidity;BMP_temperature;BMP_pressure;BME280_temperature;BME280_humidity;BME280_pressure;Samples;Min_cycle;Max_cycle;Signal;HPM_P1;HPM_P2
2023/10/23 00:01:19;;;;;;;4.43;1.85;;;;;;;8.18;74.36;99553.38;5041912;28;20059;-47
2023/10/23 00:03:46;;;;;;;5.53;2.33;;;;;;;8.16;75.26;99553.38;5042410;28;20073;-50
2023/10/23 00:06:13;;;;;;;5.95;1.95;;;;;;;8.12;74.71;99551.66;5045570;28;20519;-50
2023/10/23 00:08:40;;;;;;;5.32;2.33;;;;;;;8.10;74.39;99553.38;5039672;28;20466;-49
2023/10/23 00:11:06;;;;;;;4.50;2.22;;;;;;;8.07;74.74;99558.56;5045383;28;20045;-49
2023/10/23 00:13:33;;;;;;;5.38;2.42;;;;;;;8.05;74.13;99555.97;5043008;28;20046;-46
2023/10/23 00:16:00;;;;;;;8.25;2.88;;;;;;;8.05;74.68;99555.09;5055570;28;20060;-51
2023/10/23 00:18:27;;;;;;;6.18;1.77;;;;;;;8.04;74.73;99554.22;5044856;28;20159;-51
2023/10/23 00:20:53;;;;;;;5.85;2.53;;;;;;;8.03;74.52;99556.81;5046628;28;20048;-48
2023/10/23 00:23:20;;;;;;;6.45;2.65;;;;;;;8.00;75.03;99557.66;5036728;28;20052;-52
2023/10/23 00:25:48;;;;;;;6.53;1.85;;;;;;;7.99;74.58;99576.59;5043548;28;20045;-49
2023/10/23 00:28:15;;;;;;;4.38;2.90;;;;;;;7.96;74.57;99571.44;5044811;28;20041;-50
2023/10/23 00:30:44;;;;;;;4.75;2.22;;;;;;;7.95;75.01;99575.75;5043073;28;20804;-52
2023/10/23 00:33:11;;;;;;;8.95;2.15;;;;;;;7.93;74.88;99569.72;5037692;28;20095;-49
2023/10/23 00:35:39;;;;;;;4.10;1.90;;;;;;;7.94;74.68;99574.00;5039210;28;20114;-51
2023/10/23 00:38:07;;;;;;;6.38;2.60;;;;;;;7.93;74.48;99572.28;5044410;28;20059;-49
2023/10/23 00:40:34;;;;;;;4.20;1.63;;;;;;;7.92;74.65;99575.75;5042085;28;20049;-50
2023/10/23 00:43:23;;;;;;;5.25;1.52;;;;;;;7.89;74.72;99578.31;5041167;28;20045;-47
2023/10/23 00:45:58;;;;;;;9.07;1.50;;;;;;;7.92;75.10;99580.91;5037310;28;20053;-48
2023/10/23 00:48:26;;;;;;;3.88;1.40;;;;;;;7.93;74.99;99582.59;5036186;28;20041;-49
2023/10/23 00:50:58;;;;;;;5.22;1.98;;;;;;;7.94;75.83;99578.31;5040282;28;20077;-50
2023/10/23 00:53:29;;;;;;;6.10;2.13;;;;;;;7.93;74.65;99574.00;5044094;28;20048;-49
2023/10/23 00:55:58;;;;;;;4.00;1.60;;;;;;;7.92;75.95;99583.47;5039576;28;20045;-46
2023/10/23 00:58:25;;;;;;;3.45;1.67;;;;;;;7.89;75.23;99573.16;5047341;28;20076;-46
2023/10/23 01:00:56;;;;;;;6.97;2.40;;;;;;;7.88;75.03;99584.34;5045894;28;20045;-47
2023/10/23 01:03:25;;;;;;;4.88;2.35;;;;;;;7.84;75.40;99583.44;5042335;28;20053;-46
2023/10/23 01:05:52;;;;;;;8.10;2.03;;;;;;;7.83;75.64;99580.88;5037752;28;20466;-47
2023/10/23 01:08:19;;;;;;;5.38;2.05;;;;;;;7.82;75.03;99576.59;5040151;28;20049;-45
2023/10/23 01:10:46;;;;;;;5.47;2.42;;;;;;;7.81;75.08;99583.44;5044094;28;20056;-48
2023/10/23 01:13:14;;;;;;;5.25;2.33;;;;;;;7.81;75.26;99582.59;5045262;28;20055;-48
2023/10/23 01:15:40;;;;;;;5.80;2.33;;;;;;;7.80;75.14;99580.88;5043286;28;20049;-51
2023/10/23 01:18:07;;;;;;;5.45;2.40;;;;;;;7.79;74.91;99585.19;5042499;28;20049;-50
2023/10/23 01:20:34;;;;;;;3.67;2.03;;;;;;;7.77;75.45;99578.31;5043272;28;20049;-47
2023/10/23 01:23:02;;;;;;;5.22;2.10;;;;;;;7.76;75.30;99576.56;5040613;28;20052;-49
2023/10/23 01:25:29;;;;;;;5.07;2.20;;;;;;;7.74;75.16;99576.59;5044051;28;20044;-49
2023/10/23 01:27:56;;;;;;;6.47;1.52;;;;;;;7.75;76.13;99577.44;5045165;28;20565;-51
2023/10/23 01:30:23;;;;;;;5.65;2.88;;;;;;;7.74;75.97;99575.72;5040397;28;20048;-47
2023/10/23 01:32:50;;;;;;;5.13;2.22;;;;;;;7.73;75.55;99582.56;5045263;28;20148;-50
2023/10/23 01:35:16;;;;;;;4.63;1.90;;;;;;;7.72;75.07;99588.59;5038618;28;20132;-49
2023/10/23 01:37:45;;;;;;;5.65;2.03;;;;;;;7.69;75.61;99584.31;5048562;28;20047;-53
2023/10/23 01:40:12;;;;;;;7.10;1.83;;;;;;;7.67;75.83;99580.84;5062367;28;20055;-49
2023/10/23 01:42:39;;;;;;;5.70;1.55;;;;;;;7.67;75.49;99575.69;5063237;28;20080;-50
2023/10/23 01:45:06;;;;;;;4.05;2.20;;;;;;;7.66;76.14;99581.72;5057078;28;20140;-49
2023/10/23 01:47:33;;;;;;;9.75;2.40;;;;;;;7.65;76.45;99582.59;5058954;28;20101;-48
2023/10/23 01:50:00;;;;;;;6.07;2.25;;;;;;;7.65;75.26;99585.16;5061117;28;20052;-49
2023/10/23 01:52:26;;;;;;;5.80;2.33;;;;;;;7.64;75.22;99580.88;5057695;28;20057;-48
2023/10/23 01:54:53;;;;;;;7.25;2.60;;;;;;;7.65;76.08;99582.59;5058347;28;20125;-49
2023/10/23 01:57:20;;;;;;;3.35;2.10;;;;;;;7.64;76.19;99575.72;5058063;28;20045;-50
2023/10/23 01:59:47;;;;;;;3.72;1.85;;;;;;;7.64;75.14;99567.09;5058666;28;20073;-53
2023/10/23 02:02:14;;;;;;;4.70;1.92;;;;;;;7.63;76.54;99573.97;5062776;28;20047;-50
2023/10/23 02:04:41;;;;;;;6.28;2.63;;;;;;;7.63;76.42;99576.53;5052252;28;20056;-48
2023/10/23 02:07:08;;;;;;;4.93;1.38;;;;;;;7.64;76.41;99570.56;5059283;28;20053;-50
2023/10/23 02:09:34;;;;;;;7.50;2.05;;;;;;;7.66;77.03;99571.41;5060144;28;20056;-47
2023/10/23 02:12:01;;;;;;;7.18;1.80;;;;;;;7.67;75.59;99575.69;5056390;28;20059;-50
2023/10/23 02:14:28;;;;;;;4.25;1.83;;;;;;;7.70;75.99;99570.56;5056095;28;20045;-48
2023/10/23 02:16:55;;;;;;;5.13;1.52;;;;;;;7.70;76.86;99569.72;5056626;28;20557;-45
2023/10/23 02:19:21;;;;;;;6.47;1.60;;;;;;;7.69;76.02;99568.84;5065677;28;20127;-50
2023/10/23 02:21:50;;;;;;;4.05;1.60;;;;;;;7.67;76.06;99569.69;5063759;28;20110;-48
2023/10/23 02:24:17;;;;;;;3.85;2.28;;;;;;;7.63;76.64;99573.97;5060578;28;20040;-49
2023/10/23 02:26:44;;;;;;;3.75;1.85;;;;;;;7.60;76.88;99573.97;5065091;28;20068;-46
2023/10/23 02:29:11;;;;;;;11.30;2.50;;;;;;;7.57;76.83;99569.66;5059418;28;20041;-51
2023/10/23 02:31:38;;;;;;;7.63;1.92;;;;;;;7.55;75.93;99570.53;5062648;28;20055;-47
2023/10/23 02:34:05;;;;;;;4.03;1.95;;;;;;;7.53;75.79;99572.25;5069456;28;20102;-48
2023/10/23 02:36:32;;;;;;;5.18;2.00;;;;;;;7.51;75.97;99568.81;5062052;28;20052;-49
2023/10/23 02:38:59;;;;;;;5.88;2.92;;;;;;;7.49;76.15;99565.38;5064976;28;20094;-48
2023/10/23 02:41:30;;;;;;;4.32;2.15;;;;;;;7.45;75.61;99560.22;5064520;28;20063;-50
2023/10/23 02:43:57;;;;;;;7.85;2.42;;;;;;;7.45;76.37;99556.75;5067597;28;20331;-47
2023/10/23 02:46:24;;;;;;;8.63;2.50;;;;;;;7.43;76.67;99555.91;5060458;28;20044;-48
2023/10/23 02:48:51;;;;;;;4.50;2.03;;;;;;;7.42;76.71;99565.34;5047354;28;20041;-47
2023/10/23 02:51:18;;;;;;;8.23;4.60;;;;;;;7.41;75.86;99573.06;5045459;28;20176;-49
2023/10/23 02:53:45;;;;;;;5.72;2.83;;;;;;;7.40;76.82;99572.19;5035061;28;20064;-48
2023/10/23 02:56:13;;;;;;;6.00;2.50;;;;;;;7.39;76.45;99572.19;5047140;28;20041;-44
2023/10/23 02:58:40;;;;;;;6.32;2.58;;;;;;;7.37;76.14;99574.78;5043823;28;20519;-48
2023/10/23 03:01:23;;;;;;;6.40;3.28;;;;;;;7.33;76.13;99568.75;5039992;28;20141;-48
2023/10/23 03:03:51;;;;;;;12.52;2.28;;;;;;;7.34;77.12;99574.78;5038890;28;20041;-49
2023/10/23 03:06:18;;;;;;;7.60;2.53;;;;;;;7.33;76.16;99573.06;5039954;28;20056;-49
2023/10/23 03:08:45;;;;;;;6.13;2.35;;;;;;;7.30;76.23;99571.31;5045202;28;20060;-50
2023/10/23 03:11:12;;;;;;;4.78;2.85;;;;;;;7.27;76.13;99566.19;5038689;28;20527;-48
2023/10/23 03:13:38;;;;;;;12.73;2.50;;;;;;;7.26;75.77;99563.59;5044891;28;20076;-48
2023/10/23 03:16:05;;;;;;;14.60;2.60;;;;;;;7.24;77.00;99562.72;5048422;28;20045;-45
2023/10/23 03:18:32;;;;;;;10.93;2.83;;;;;;;7.21;77.09;99566.16;5066763;28;20501;-49
2023/10/23 03:20:59;;;;;;;16.88;2.42;;;;;;;7.19;76.14;99570.41;5047319;28;20140;-46
2023/10/23 03:23:28;;;;;;;5.45;2.25;;;;;;;7.18;76.68;99563.56;5047569;28;20422;-46
2023/10/23 03:25:56;;;;;;;24.52;2.70;;;;;;;7.15;76.20;99560.97;5044881;28;20048;-51
2023/10/23 03:28:23;;;;;;;23.02;2.25;;;;;;;7.14;76.16;99560.13;5042577;28;20049;-50
2023/10/23 03:30:50;;;;;;;23.83;2.60;;;;;;;7.14;77.11;99554.09;5043771;28;20527;-48
2023/10/23 03:33:17;;;;;;;18.90;2.50;;;;;;;7.13;77.02;99558.38;5044120;28;20041;-48
2023/10/23 03:35:44;;;;;;;31.20;2.53;;;;;;;7.12;76.76;99556.66;5044387;28;20630;-52
2023/10/23 03:38:12;;;;;;;23.50;2.17;;;;;;;7.11;76.59;99554.97;5046730;28;20079;-46
2023/10/23 03:40:39;;;;;;;4.63;1.48;;;;;;;7.10;76.69;99558.41;5040465;28;20049;-50
2023/10/23 03:43:06;;;;;;;28.25;2.88;;;;;;;7.10;75.94;99553.25;5046206;28;20049;-51
2023/10/23 03:45:36;;;;;;;25.38;2.65;;;;;;;7.09;76.48;99551.50;5043613;28;20045;-51
2023/10/23 03:48:04;;;;;;;30.50;2.10;;;;;;;7.09;76.35;99550.66;5046301;28;20076;-51
2023/10/23 03:50:30;;;;;;;30.40;2.20;;;;;;;7.08;76.98;99544.63;5043332;28;20055;-50
2023/10/23 03:52:57;;;;;;;28.52;2.65;;;;;;;7.07;76.49;99548.91;5044950;28;20041;-48
2023/10/23 03:55:25;;;;;;;31.88;3.10;;;;;;;7.08;76.80;99552.38;5046291;28;20048;-48
2023/10/23 03:57:51;;;;;;;61.90;2.92;;;;;;;7.07;75.96;99553.22;5044996;28;20049;-49
2023/10/23 04:00:18;;;;;;;40.08;2.53;;;;;;;7.06;76.73;99552.34;5040109;28;20506;-47
2023/10/23 04:02:45;;;;;;;37.00;2.53;;;;;;;7.06;76.51;99551.50;5045745;28;20049;-47
2023/10/23 04:05:13;;;;;;;39.63;1.70;;;;;;;7.05;76.94;99560.06;5046905;28;20414;-50
2023/10/23 04:07:40;;;;;;;38.72;2.38;;;;;;;7.03;76.56;99560.06;5041210;28;20053;-49
2023/10/23 04:10:08;;;;;;;19.20;1.90;;;;;;;7.03;77.40;99572.09;5046045;28;20048;-46
2023/10/23 04:12:34;;;;;;;34.65;2.67;;;;;;;7.01;77.12;99574.66;5045014;28;20056;-50
2023/10/23 04:15:01;;;;;;;11.38;1.58;;;;;;;7.01;76.86;99561.78;5045131;28;20052;-46
2023/10/23 04:17:28;;;;;;;27.08;2.38;;;;;;;7.00;76.00;99566.94;5051878;28;20044;-45
2023/10/23 04:19:55;;;;;;;29.23;2.00;;;;;;;6.99;77.14;99565.22;5064446;28;20076;-50
2023/10/23 04:22:22;;;;;;;16.25;1.85;;;;;;;6.97;76.37;99562.63;5064817;28;20131;-49
2023/10/23 04:24:49;;;;;;;15.55;1.38;;;;;;;6.94;76.59;99566.06;5048317;28;20112;-50
2023/10/23 04:27:16;;;;;;;20.55;1.65;;;;;;;6.92;76.65;99565.19;5042690;28;20629;-49
2023/10/23 04:29:42;;;;;;;13.23;1.70;;;;;;;6.86;75.56;99567.72;5044834;28;20422;-52
2023/10/23 04:32:09;;;;;;;15.48;1.33;;;;;;;6.83;76.41;99575.44;5038097;28;20041;-49
2023/10/23 04:34:35;;;;;;;8.23;1.77;;;;;;;6.80;75.58;99570.28;5048157;28;20522;-48
2023/10/23 04:37:03;;;;;;;11.63;2.30;;;;;;;6.76;75.53;99564.22;5042013;28;20045;-45
2023/10/23 04:39:29;;;;;;;11.63;1.55;;;;;;;6.75;77.44;99562.53;5043475;28;20059;-51
2023/10/23 04:41:56;;;;;;;13.55;1.73;;;;;;;6.72;76.83;99551.38;5041127;28;20072;-52
2023/10/23 04:44:23;;;;;;;22.90;2.03;;;;;;;6.71;76.28;99554.75;5044991;28;20053;-48
2023/10/23 04:46:49;;;;;;;21.15;1.95;;;;;;;6.69;76.20;99553.06;5040950;28;20091;-51
2023/10/23 04:49:16;;;;;;;19.55;1.65;;;;;;;6.68;77.32;99551.34;5046589;28;20049;-51
2023/10/23 04:51:43;;;;;;;20.30;2.28;;;;;;;6.65;75.81;99556.47;5043694;28;20076;-50
2023/10/23 04:54:10;;;;;;;20.25;1.75;;;;;;;6.63;76.95;99553.03;5048133;28;20049;-47
2023/10/23 04:56:36;;;;;;;14.15;2.15;;;;;;;6.62;77.13;99546.16;5046932;28;20044;-48
2023/10/23 04:59:03;;;;;;;19.98;2.47;;;;;;;6.60;76.17;99547.00;5042202;28;20045;-45
2023/10/23 05:01:30;;;;;;;34.85;3.03;;;;;;;6.60;76.72;99552.16;5041956;28;20040;-47
2023/10/23 05:03:57;;;;;;;24.02;2.55;;;;;;;6.58;77.38;99549.56;5043829;28;20053;-48
2023/10/23 05:06:26;;;;;;;12.07;2.03;;;;;;;6.57;76.85;99558.13;5047506;28;20095;-44
2023/10/23 05:08:54;;;;;;;13.05;2.10;;;;;;;6.55;77.17;99550.41;5046215;28;20045;-48
2023/10/23 05:11:20;;;;;;;16.80;2.03;;;;;;;6.53;75.93;99546.09;5042749;28;20052;-50
2023/10/23 05:13:47;;;;;;;7.60;1.30;;;;;;;6.51;76.20;99550.38;5043506;28;20076;-48
2023/10/23 05:16:14;;;;;;;5.93;1.98;;;;;;;6.48;75.39;99553.78;5041767;28;20040;-48
2023/10/23 05:18:41;;;;;;;9.38;2.30;;;;;;;6.45;77.00;99552.94;5049389;28;20045;-50
2023/10/23 05:21:10;;;;;;;9.32;1.88;;;;;;;6.45;76.14;99555.50;5044673;28;20056;-46
2023/10/23 05:23:37;;;;;;;7.78;2.00;;;;;;;6.44;76.26;99546.91;5046818;28;20095;-50
2023/10/23 05:26:04;;;;;;;8.02;2.72;;;;;;;6.43;76.58;99548.59;5042643;28;20048;-47
2023/10/23 05:28:31;;;;;;;5.47;2.33;;;;;;;6.43;75.82;99551.19;5045006;28;20044;-46
2023/10/23 05:30:58;;;;;;;12.52;2.67;;;;;;;6.45;75.87;99552.94;5042178;28;20048;-51
2023/10/23 05:33:25;;;;;;;9.68;3.35;;;;;;;6.46;77.18;99549.50;5040344;28;20463;-46
2023/10/23 05:36:09;;;;;;;6.47;2.63;;;;;;;6.43;77.23;99548.59;5046476;28;20049;-50
2023/10/23 05:38:37;;;;;;;15.20;2.22;;;;;;;6.48;76.98;99545.22;5042725;28;20045;-47
2023/10/23 05:41:07;;;;;;;48.97;4.03;;;;;;;6.49;77.56;99550.34;5038626;28;20068;-48
2023/10/23 05:43:34;;;;;;;39.85;4.22;;;;;;;6.51;76.64;99550.38;5042694;28;20130;-48
2023/10/23 05:46:03;;;;;;;55.45;3.40;;;;;;;6.53;77.04;99546.09;5040095;28;20055;-50
2023/10/23 05:48:30;;;;;;;82.65;5.57;;;;;;;6.55;76.53;99552.09;5038450;28;20055;-50
2023/10/23 05:51:03;;;;;;;52.88;3.78;;;;;;;6.57;76.49;99550.41;5033761;28;20054;-50
2023/10/23 05:53:31;;;;;;;34.85;2.78;;;;;;;6.56;76.00;99556.44;5039046;28;20128;-49
2023/10/23 05:56:03;;;;;;;53.72;3.67;;;;;;;6.56;77.34;99541.81;5042036;28;20095;-48
2023/10/23 05:58:32;;;;;;;36.88;3.95;;;;;;;6.58;77.27;99548.72;5042133;28;20041;-46
2023/10/23 06:01:07;;;;;;;55.40;3.72;;;;;;;6.56;77.53;99548.72;5044529;28;20815;-51
2023/10/23 06:03:34;;;;;;;43.40;3.45;;;;;;;6.55;76.79;99554.69;5046386;28;20083;-50
2023/10/23 06:06:02;;;;;;;39.08;4.22;;;;;;;6.55;76.41;99557.25;5040137;28;20060;-49
2023/10/23 06:08:29;;;;;;;33.42;3.70;;;;;;;6.52;77.49;99542.66;5040704;28;20053;-47
2023/10/23 06:10:56;;;;;;;75.20;4.60;;;;;;;6.52;77.44;99547.81;5041024;28;20457;-48
2023/10/23 06:13:22;;;;;;;37.70;3.67;;;;;;;6.51;77.89;99552.94;5044793;28;20073;-46
2023/10/23 06:15:49;;;;;;;47.05;4.18;;;;;;;6.50;77.23;99548.66;5040511;28;20055;-50
2023/10/23 06:18:16;;;;;;;50.30;4.18;;;;;;;6.52;76.82;99549.53;5038249;28;20045;-47
2023/10/23 06:20:44;;;;;;;73.28;3.92;;;;;;;6.52;77.00;99549.53;5043868;28;20041;-48
2023/10/23 06:23:11;;;;;;;50.63;3.90;;;;;;;6.52;78.42;99546.97;5041056;28;20136;-45
2023/10/23 06:25:37;;;;;;;52.13;3.72;;;;;;;6.51;77.60;99542.66;5042402;28;20045;-48
2023/10/23 06:28:04;;;;;;;27.15;3.65;;;;;;;6.51;77.44;99542.66;5045052;28;20067;-46
2023/10/23 06:30:31;;;;;;;37.55;3.72;;;;;;;6.50;77.51;99548.66;5038595;28;20513;-48
2023/10/23 06:32:57;;;;;;;41.35;3.70;;;;;;;6.51;76.96;99552.94;5044593;28;20153;-51
2023/10/23 06:35:24;;;;;;;29.50;3.20;;;;;;;6.51;77.86;99547.81;5046251;28;21781;-47
2023/10/23 06:37:51;;;;;;;19.33;3.33;;;;;;;6.50;77.15;99546.09;5045719;28;20048;-50
2023/10/23 06:40:18;;;;;;;40.15;3.10;;;;;;;6.49;77.99;99549.53;5049230;28;20041;-46
2023/10/23 06:42:44;;;;;;;17.00;3.20;;;;;;;6.48;76.70;99548.66;5035838;28;20059;-48
2023/10/23 06:45:11;;;;;;;16.98;2.95;;;;;;;6.48;77.53;99550.38;5046260;28;20071;-47
2023/10/23 06:47:38;;;;;;;10.93;2.97;;;;;;;6.45;76.64;99548.63;5040067;28;20748;-49
2023/10/23 06:50:06;;;;;;;23.52;3.20;;;;;;;6.46;77.50;99554.63;5041147;28;20141;-48
2023/10/23 06:52:33;;;;;;;44.70;4.10;;;;;;;6.43;76.87;99551.19;5034973;28;20836;-47
2023/10/23 06:54:59;;;;;;;27.70;4.00;;;;;;;6.45;77.12;99552.94;5042274;28;20055;-49
2023/10/23 06:57:26;;;;;;;58.40;4.30;;;;;;;6.45;78.38;99552.94;5037842;28;20060;-51
2023/10/23 06:59:54;;;;;;;52.55;4.47;;;;;;;6.44;78.35;99552.06;5043151;28;20063;-48
2023/10/23 07:02:22;;;;;;;65.65;3.92;;;;;;;6.43;77.46;99551.19;5037397;28;20095;-46
2023/10/23 07:04:49;;;;;;;42.03;3.17;;;;;;;6.44;77.44;99552.06;5045503;28;20153;-50
2023/10/23 07:07:16;;;;;;;28.33;3.22;;;;;;;6.46;78.13;99550.38;5044366;28;20057;-50
2023/10/23 07:09:58;;;;;;;22.05;3.17;;;;;;;6.47;78.57;99546.06;5042661;28;20721;-48
2023/10/23 07:12:27;;;;;;;63.38;5.40;;;;;;;6.49;77.76;99549.53;5051635;28;20053;-53
2023/10/23 07:14:53;;;;;;;50.55;4.25;;;;;;;6.53;78.28;99562.41;5038414;28;20464;-49
2023/10/23 07:17:20;;;;;;;50.95;4.43;;;;;;;6.54;77.96;99558.13;5045131;28;20497;-51
2023/10/23 07:19:47;;;;;;;51.22;3.80;;;;;;;6.58;77.34;99565.00;5037349;28;20042;-48
2023/10/23 07:22:13;;;;;;;84.28;5.68;;;;;;;6.60;77.87;99558.16;5043815;28;20063;-49
2023/10/23 07:24:40;;;;;;;94.40;5.07;;;;;;;6.63;77.46;99560.75;5041013;28;20049;-49
2023/10/23 07:27:11;;;;;;;26.98;4.35;;;;;;;6.67;77.23;99559.91;5042079;28;20049;-50
2023/10/23 07:29:38;;;;;;;17.63;3.85;;;;;;;6.72;78.48;99548.78;5035483;28;20045;-51
2023/10/23 07:32:05;;;;;;;17.48;3.85;;;;;;;6.76;77.88;99553.94;5041069;28;20056;-49
2023/10/23 07:34:32;;;;;;;12.55;4.60;;;;;;;6.82;78.25;99559.13;5045145;28;20053;-47
2023/10/23 07:36:58;;;;;;;11.23;3.75;;;;;;;6.90;78.67;99551.47;5042486;28;20045;-48
2023/10/23 07:39:25;;;;;;;11.63;4.25;;;;;;;6.98;77.82;99550.59;5040089;28;20505;-48
2023/10/23 07:41:52;;;;;;;10.60;4.47;;;;;;;7.04;78.25;99548.94;5042227;28;20042;-48
2023/10/23 07:44:20;;;;;;;12.50;3.92;;;;;;;7.12;77.31;99551.50;5042318;28;20509;-47
2023/10/23 07:46:47;;;;;;;11.40;3.90;;;;;;;7.20;77.35;99549.81;5044918;28;20129;-51
2023/10/23 07:49:14;;;;;;;11.30;3.90;;;;;;;7.30;77.31;99555.84;5047580;28;20502;-52
2023/10/23 07:51:41;;;;;;;13.73;4.72;;;;;;;7.40;78.38;99543.84;5040976;28;20052;-47
2023/10/23 07:54:08;;;;;;;11.73;4.35;;;;;;;7.48;78.29;99543.03;5036967;28;20041;-49
2023/10/23 07:56:34;;;;;;;10.50;4.50;;;;;;;7.58;78.08;99539.59;5031686;28;20049;-47
2023/10/23 07:59:01;;;;;;;11.68;4.53;;;;;;;7.66;77.03;99544.75;5042002;28;20049;-47
2023/10/23 08:01:28;;;;;;;10.88;4.70;;;;;;;7.75;77.37;99549.06;5031594;28;20059;-48
2023/10/23 08:03:54;;;;;;;12.40;4.78;;;;;;;7.83;78.46;99544.78;5031640;28;20053;-46
2023/10/23 08:06:22;;;;;;;12.45;5.13;;;;;;;7.92;77.41;99544.78;5028125;28;20136;-46
2023/10/23 08:08:48;;;;;;;10.27;4.05;;;;;;;8.02;77.15;99542.19;5028799;28;20056;-49
2023/10/23 08:11:15;;;;;;;12.35;5.05;;;;;;;8.13;77.73;99548.22;5034050;28;20059;-47
2023/10/23 08:13:42;;;;;;;12.60;4.68;;;;;;;8.26;77.13;99543.03;5040382;28;20592;-47
2023/10/23 08:16:09;;;;;;;16.02;5.22;;;;;;;8.41;77.84;99548.16;5043975;28;20531;-46
2023/10/23 08:18:36;;;;;;;12.27;4.80;;;;;;;8.53;77.12;99541.25;5042642;28;20045;-46
2023/10/23 08:23:46;;;;;;;13.10;6.00;;;;;;;8.78;77.43;99551.56;5019238;28;20450;-49
2023/10/23 08:26:13;;;;;;;11.93;6.18;;;;;;;8.92;77.31;99548.94;4984417;28;20062;-49
2023/10/23 08:28:40;;;;;;;11.80;6.30;;;;;;;9.09;77.41;99541.09;4988178;28;20088;-48
2023/10/23 08:31:10;;;;;;;12.95;6.18;;;;;;;9.31;77.21;99540.97;4975375;28;20097;-50
2023/10/23 08:33:56;;;;;;;11.63;6.55;;;;;;;9.55;76.97;99539.97;4982168;28;20137;-47
2023/10/23 08:36:23;;;;;;;13.13;6.57;;;;;;;9.72;77.01;99537.28;4995968;28;20049;-46
2023/10/23 08:38:50;;;;;;;29.95;7.20;;;;;;;9.90;77.16;99535.44;5000113;28;20058;-48
2023/10/23 08:41:17;;;;;;;12.48;7.25;;;;;;;10.01;76.49;99538.78;5001334;28;20042;-47
2023/10/23 08:43:44;;;;;;;11.63;6.15;;;;;;;10.12;76.48;99535.22;4991247;28;20049;-47
2023/10/23 08:46:11;;;;;;;10.82;6.55;;;;;;;10.20;76.17;99543.75;4991235;28;20065;-49
2023/10/23 08:48:37;;;;;;;13.60;5.65;;;;;;;10.29;76.72;99548.88;4996687;28;20046;-47
2023/10/23 08:51:07;;;;;;;11.95;6.20;;;;;;;10.46;76.41;99545.28;4985895;28;20050;-46
2023/10/23 08:53:47;;;;;;;9.32;5.68;;;;;;;10.66;75.99;99542.47;4992879;28;20108;-46
2023/10/23 08:56:37;;;;;;;10.45;5.47;;;;;;;11.01;75.79;99542.09;5003335;28;20097;-46
2023/10/23 08:59:05;;;;;;;13.50;7.32;;;;;;;11.38;75.26;99538.13;5012362;28;20061;-49
2023/10/23 09:01:34;;;;;;;13.30;6.75;;;;;;;11.71;75.31;99538.50;4987698;28;20058;-50
2023/10/23 09:04:03;;;;;;;13.63;6.00;;;;;;;11.99;74.72;99539.81;4991303;28;20046;-47
2023/10/23 09:06:33;;;;;;;13.45;5.95;;;;;;;12.15;74.48;99538.69;4987335;28;20057;-53
2023/10/23 09:09:00;;;;;;;10.95;6.07;;;;;;;12.25;75.04;99539.38;4990347;28;20050;-50
2023/10/23 09:11:45;;;;;;;11.07;7.55;;;;;;;12.34;73.79;99541.78;4991325;28;20054;-50
2023/10/23 09:14:31;;;;;;;9.65;5.65;;;;;;;12.45;74.14;99535.56;4986744;28;20047;-48
2023/10/23 09:16:59;;;;;;;10.25;5.72;;;;;;;12.59;73.83;99543.94;4988198;28;20078;-50
2023/10/23 09:22:04;;;;;;;8.07;3.25;;;;;;;12.92;73.83;99539.84;5049002;28;20400;-51
2023/10/23 09:24:31;;;;;;;6.93;3.38;;;;;;;13.00;72.88;99540.53;4975777;28;21038;-50
2023/10/23 09:26:58;;;;;;;7.30;2.38;;;;;;;13.08;72.90;99530.00;4989045;28;20050;-49
2023/10/23 09:29:26;;;;;;;8.15;3.40;;;;;;;13.18;73.69;99546.25;4990215;28;20059;-49
2023/10/23 09:31:54;;;;;;;10.55;2.88;;;;;;;13.15;72.75;99536.78;4988355;28;20050;-49
2023/10/23 09:34:21;;;;;;;5.93;2.63;;;;;;;13.22;72.80;99537.47;4988835;28;20780;-50
2023/10/23 09:36:51;;;;;;;4.40;2.80;;;;;;;13.22;72.98;99537.47;4988983;28;20149;-52
2023/10/23 09:39:19;;;;;;;6.90;2.47;;;;;;;13.10;72.62;99531.66;4990972;28;20054;-51
2023/10/23 09:41:46;;;;;;;5.10;2.25;;;;;;;13.08;72.86;99536.03;4989452;28;20066;-51
2023/10/23 09:44:14;;;;;;;10.52;2.40;;;;;;;12.98;73.60;99529.31;5027608;28;20049;-50
2023/10/23 09:46:42;;;;;;;4.90;2.72;;;;;;;12.92;73.21;99532.91;4992727;28;20423;-48
2023/10/23 09:49:10;;;;;;;4.57;1.92;;;;;;;12.91;73.58;99527.75;4985292;28;20579;-51
2023/10/23 09:51:39;;;;;;;8.20;2.60;;;;;;;12.88;73.08;99531.25;4988655;28;20053;-51
2023/10/23 09:54:19;;;;;;;4.95;2.10;;;;;;;12.90;74.30;99531.22;4988431;28;20061;-52
2023/10/23 09:59:29;;;;;;;6.88;2.60;;;;;;;13.05;74.21;99530.91;5023133;28;20411;-48
2023/10/23 10:02:00;;;;;;;5.70;3.47;;;;;;;13.21;74.36;99530.59;5007441;28;20065;-51
2023/10/23 10:07:26;;;;;;;10.95;2.30;;;;;;;13.37;73.54;99518.94;5090001;27;20397;-52
2023/10/23 10:09:54;;;;;;;9.82;2.53;;;;;;;13.44;73.75;99521.41;5016928;28;20458;-48
2023/10/23 10:12:21;;;;;;;6.88;2.00;;;;;;;13.54;73.64;99522.91;5027415;28;20122;-52
2023/10/23 10:14:48;;;;;;;9.05;2.08;;;;;;;13.61;74.09;99524.47;5030105;28;20045;-50
2023/10/23 10:17:17;;;;;;;8.18;2.55;;;;;;;13.60;73.35;99519.31;5030745;28;20148;-49
2023/10/23 10:19:45;;;;;;;5.38;2.30;;;;;;;13.61;73.66;99514.06;5022694;28;20100;-52
2023/10/23 10:22:23;;;;;;;7.30;2.50;;;;;;;13.69;73.36;99510.44;5016632;28;20446;-49
2023/10/23 10:24:52;;;;;;;9.90;2.03;;;;;;;13.74;73.26;99501.63;5017600;28;20418;-50
2023/10/23 10:27:20;;;;;;;5.32;2.25;;;;;;;13.84;73.69;99506.59;5032408;28;20577;-48
2023/10/23 10:29:47;;;;;;;4.30;1.83;;;;;;;13.82;73.49;99501.41;5019436;28;20132;-51
2023/10/23 10:32:13;;;;;;;5.60;2.50;;;;;;;13.88;73.21;99501.28;5014328;28;20046;-52
2023/10/23 10:34:51;;;;;;;4.38;2.15;;;;;;;13.87;73.31;99504.78;5010666;28;20142;-51
2023/10/23 10:37:26;;;;;;;3.70;1.90;;;;;;;13.89;73.70;99494.34;5008273;28;20687;-52
2023/10/23 10:42:38;;;;;;;6.85;2.70;;;;;;;13.91;74.19;99489.09;5036457;27;20418;-53
2023/10/23 10:50:33;;;;;;;8.63;3.20;;;;;;;13.84;74.08;99494.44;5023069;27;20411;-52
2023/10/23 10:53:02;;;;;;;8.80;3.60;;;;;;;13.79;74.47;99491.13;5002027;28;20469;-48
2023/10/23 10:55:30;;;;;;;9.65;3.50;;;;;;;13.78;75.13;99491.16;4999120;28;20169;-49
2023/10/23 10:57:58;;;;;;;9.48;3.78;;;;;;;13.62;75.40;99483.72;4994102;28;20050;-49
2023/10/23 11:00:28;;;;;;;8.25;3.28;;;;;;;13.60;74.53;99481.16;4991062;28;20074;-48
2023/10/23 11:02:55;;;;;;;6.72;3.80;;;;;;;13.49;75.79;99472.75;4992963;28;20046;-51
2023/10/23 11:05:22;;;;;;;9.68;4.32;;;;;;;13.39;76.17;99482.50;5004837;28;20100;-50
2023/10/23 11:07:51;;;;;;;8.23;3.78;;;;;;;13.43;75.57;99483.25;5004679;28;20049;-50
2023/10/23 11:10:20;;;;;;;5.22;2.65;;;;;;;13.44;76.70;99469.38;5002381;28;20046;-52
2023/10/23 11:12:48;;;;;;;7.00;3.20;;;;;;;13.52;75.86;99467.47;5003455;28;20078;-49
2023/10/23 11:15:15;;;;;;;6.82;3.08;;;;;;;13.42;76.75;99466.81;5004113;28;20045;-49
2023/10/23 11:17:42;;;;;;;10.90;3.97;;;;;;;13.45;76.29;99463.28;5008105;28;20042;-46
2023/10/23 11:20:10;;;;;;;7.97;5.63;;;;;;;13.45;75.95;99450.28;5004041;28;20447;-51
2023/10/23 11:22:41;;;;;;;6.30;3.33;;;;;;;13.46;76.09;99451.97;5001665;28;20423;-50
2023/10/23 11:25:09;;;;;;;6.75;2.97;;;;;;;13.46;76.84;99441.56;5004723;28;20046;-47
2023/10/23 11:27:37;;;;;;;5.90;3.33;;;;;;;13.47;76.94;99443.28;5003066;28;20418;-49
2023/10/23 11:30:06;;;;;;;9.77;2.78;;;;;;;13.53;76.80;99437.09;4997264;28;20053;-47
2023/10/23 11:32:34;;;;;;;5.43;2.42;;;;;;;13.61;76.13;99430.81;4998348;28;20065;-47
2023/10/23 11:35:05;;;;;;;6.63;2.25;;;;;;;13.59;76.53;99437.81;5003172;28;20050;-46
2023/10/23 11:37:34;;;;;;;5.30;2.42;;;;;;;13.58;76.59;99425.69;5001502;28;20129;-52
2023/10/23 11:40:05;;;;;;;9.27;2.83;;;;;;;13.64;76.25;99426.44;4997311;28;20038;-46
2023/10/23 11:42:53;;;;;;;8.05;2.88;;;;;;;13.70;77.15;99418.44;4988488;28;20046;-50
2023/10/23 11:45:22;;;;;;;6.93;2.22;;;;;;;13.76;76.55;99418.31;4995948;28;20050;-51
2023/10/23 11:47:51;;;;;;;10.65;2.72;;;;;;;13.88;76.25;99417.97;4998949;28;20168;-48
2023/10/23 11:50:19;;;;;;;5.32;1.35;;;;;;;13.95;76.77;99420.44;4982845;28;20038;-50
2023/10/23 11:52:49;;;;;;;5.63;2.50;;;;;;;13.98;76.99;99412.50;4991883;28;20081;-47
2023/10/23 11:55:17;;;;;;;9.20;2.90;;;;;;;14.08;76.48;99397.53;4992499;28;20089;-48
2023/10/23 11:57:47;;;;;;;7.15;2.22;;;;;;;14.13;76.47;99404.31;4992542;28;20046;-45
2023/10/23 12:00:15;;;;;;;3.50;1.55;;;;;;;14.23;75.97;99406.63;4997791;28;20074;-51